createdAt,value
2018-11-07T00:00:43.134Z,21.97
2018-11-07T00:03:12.361Z,21.77
2018-11-07T00:05:41.001Z,20.53
2018-11-07T00:08:10.130Z,21.63
2018-11-07T00:10:39.229Z,21.73
2018-11-07T00:13:07.891Z,20.87
2018-11-07T00:15:36.531Z,21.27
2018-11-07T00:18:05.276Z,20.57
2018-11-07T00:20:34.317Z,20.60
2018-11-07T00:23:02.866Z,20.83
2018-11-07T00:25:31.920Z,19.80
2018-11-07T00:28:01.340Z,20.67
2018-11-07T00:30:29.906Z,20.67
2018-11-07T00:32:58.445Z,20.37
2018-11-07T00:35:27.640Z,20.63
2018-11-07T00:37:56.682Z,18.97
2018-11-07T00:40:25.274Z,18.33
2018-11-07T00:42:54.956Z,18.50
2018-11-07T00:45:23.504Z,18.10
2018-11-07T00:47:52.087Z,16.67
2018-11-07T00:50:21.870Z,16.50
2018-11-07T00:52:51.541Z,16.07
2018-11-07T00:55:20.092Z,15.20
2018-11-07T00:57:48.705Z,15.03
2018-11-07T01:00:19.360Z,15.00
2018-11-07T01:02:50.781Z,15.63
2018-11-07T01:05:19.412Z,14.87
2018-11-07T01:07:48.457Z,15.00
2018-11-07T01:10:17.847Z,13.90
2018-11-07T01:12:46.416Z,14.37
2018-11-07T01:15:15.167Z,14.43
2018-11-07T01:17:43.764Z,14.93
2018-11-07T01:20:13.805Z,14.53
2018-11-07T01:22:42.408Z,14.53
2018-11-07T01:25:10.949Z,13.53
2018-11-07T01:27:40.000Z,14.03
2018-11-07T01:30:10.399Z,13.50
2018-11-07T01:32:38.941Z,14.00
2018-11-07T01:35:08.281Z,14.10
2018-11-07T01:37:36.835Z,13.90
2018-11-07T01:40:08.448Z,13.77
2018-11-07T01:42:37.045Z,13.57
2018-11-07T01:45:06.722Z,14.23
2018-11-07T01:47:35.805Z,13.93
2018-11-07T01:50:04.516Z,13.63
2018-11-07T01:52:33.085Z,15.33
2018-11-07T01:55:01.670Z,15.03
2018-11-07T01:57:31.085Z,15.13
2018-11-07T02:00:00.785Z,14.23
2018-11-07T02:02:29.996Z,15.53
2018-11-07T02:04:58.744Z,15.80
2018-11-07T02:07:27.342Z,16.13
2018-11-07T02:09:56.493Z,16.13
2018-11-07T02:12:25.737Z,15.93
2018-11-07T02:14:54.965Z,16.40
2018-11-07T02:17:23.572Z,15.50
2018-11-07T02:19:52.177Z,15.47
2018-11-07T02:22:21.196Z,16.80
2018-11-07T02:24:50.529Z,15.00
2018-11-07T02:27:19.068Z,16.60
2018-11-07T02:29:47.705Z,16.60
2018-11-07T02:32:16.846Z,15.83
2018-11-07T02:34:45.403Z,16.13
2018-11-07T02:37:14.848Z,16.30
2018-11-07T02:39:44.033Z,15.87
2018-11-07T02:42:13.270Z,16.47
2018-11-07T02:44:42.546Z,16.93
2018-11-07T02:47:11.133Z,16.67
2018-11-07T02:49:40.420Z,15.80
2018-11-07T02:52:09.000Z,15.90
2018-11-07T02:54:37.568Z,16.53
2018-11-07T02:57:06.165Z,15.60
2018-11-07T02:59:34.711Z,16.30
2018-11-07T03:02:03.334Z,16.73
2018-11-07T03:04:32.573Z,16.33
2018-11-07T03:07:01.117Z,15.63
2018-11-07T03:09:30.756Z,16.73
2018-11-07T03:11:59.474Z,16.03
2018-11-07T03:14:28.082Z,15.63
2018-11-07T03:16:56.638Z,15.40
2018-11-07T03:19:25.175Z,15.23
2018-11-07T03:21:53.834Z,15.77
2018-11-07T03:24:22.428Z,13.90
2018-11-07T03:26:51.645Z,14.67
2018-11-07T03:29:20.188Z,14.63
2018-11-07T03:31:48.754Z,14.83
2018-11-07T03:34:17.936Z,14.43
2018-11-07T03:36:46.491Z,15.13
2018-11-07T03:39:15.012Z,13.43
2018-11-07T03:41:44.301Z,12.90
2018-11-07T03:44:12.842Z,13.23
2018-11-07T03:46:41.435Z,13.67
2018-11-07T03:49:09.949Z,14.03
2018-11-07T03:51:42.768Z,14.50
2018-11-07T03:54:11.338Z,14.97
2018-11-07T03:56:41.654Z,15.30
2018-11-07T03:59:10.325Z,14.57
2018-11-07T04:01:39.531Z,15.50
2018-11-07T04:04:08.145Z,15.13
2018-11-07T04:06:36.805Z,15.00
2018-11-07T04:09:08.771Z,14.90
2018-11-07T04:11:37.432Z,15.33
2018-11-07T04:14:06.611Z,14.03
2018-11-07T04:16:35.244Z,14.77
2018-11-07T04:19:03.818Z,14.73
2018-11-07T04:21:32.388Z,14.97
2018-11-07T04:24:03.319Z,16.10
2018-11-07T04:26:34.774Z,15.63
2018-11-07T04:29:04.050Z,15.93
2018-11-07T04:31:33.316Z,14.93
2018-11-07T04:34:02.217Z,14.17
2018-11-07T04:36:31.336Z,14.93
2018-11-07T04:39:01.158Z,14.30
2018-11-07T04:41:30.267Z,14.40
2018-11-07T04:43:59.340Z,13.80
2018-11-07T04:46:28.457Z,14.87
2018-11-07T04:48:57.056Z,13.70
2018-11-07T04:51:25.641Z,14.80
2018-11-07T04:53:55.409Z,15.27
2018-11-07T04:56:23.964Z,14.17
2018-11-07T04:58:52.999Z,13.30
2018-11-07T05:01:21.557Z,14.20
2018-11-07T05:03:50.110Z,14.67
2018-11-07T05:06:18.660Z,14.87
2018-11-07T05:08:47.866Z,15.03
2018-11-07T05:11:16.384Z,14.30
2018-11-07T05:13:44.948Z,14.37
2018-11-07T05:16:15.345Z,13.47
2018-11-07T05:18:43.945Z,13.97
2018-11-07T05:21:13.947Z,13.87
2018-11-07T05:23:42.513Z,14.30
2018-11-07T05:26:11.609Z,14.10
2018-11-07T05:28:40.172Z,14.10
2018-11-07T05:31:08.781Z,13.07
2018-11-07T05:33:37.359Z,15.10
2018-11-07T05:36:06.436Z,14.07
2018-11-07T05:38:35.583Z,13.13
2018-11-07T05:41:04.224Z,13.50
2018-11-07T05:43:33.626Z,13.97
2018-11-07T05:46:03.043Z,15.27
2018-11-07T05:48:33.111Z,14.43
2018-11-07T05:51:03.357Z,13.50
2018-11-07T05:53:32.593Z,14.43
2018-11-07T05:56:01.924Z,14.47
2018-11-07T05:58:32.290Z,14.63
2018-11-07T06:01:01.816Z,14.50
2018-11-07T06:03:31.080Z,14.00
2018-11-07T06:06:00.247Z,14.53
2018-11-07T06:08:28.757Z,13.97
2018-11-07T06:10:58.019Z,14.27
2018-11-07T06:13:26.728Z,15.40
2018-11-07T06:15:56.260Z,14.07
2018-11-07T06:18:25.013Z,15.97
2018-11-07T06:20:53.968Z,15.03
2018-11-07T06:23:23.873Z,16.63
2018-11-07T06:25:53.619Z,14.67
2018-11-07T06:28:22.631Z,15.20
2018-11-07T06:30:51.459Z,16.43
2018-11-07T06:33:22.930Z,16.40
2018-11-07T06:35:52.196Z,15.10
2018-11-07T06:38:21.408Z,15.03
2018-11-07T06:40:50.419Z,15.43
2018-11-07T06:43:19.841Z,14.90
2018-11-07T06:45:49.760Z,14.03
2018-11-07T06:48:19.464Z,15.07
2018-11-07T06:50:48.483Z,15.30
2018-11-07T06:53:17.393Z,15.33
2018-11-07T06:55:48.311Z,14.83
2018-11-07T06:58:16.811Z,14.83
2018-11-07T07:00:45.397Z,14.60
2018-11-07T07:03:13.937Z,15.23
2018-11-07T07:05:43.720Z,15.73
2018-11-07T07:08:12.230Z,14.63
2018-11-07T07:10:41.405Z,15.30
2018-11-07T07:13:10.084Z,14.63
2018-11-07T07:15:38.700Z,14.47
2018-11-07T07:18:07.610Z,14.60
2018-11-07T07:20:36.772Z,14.60
2018-11-07T07:23:06.314Z,14.50
2018-11-07T07:25:35.135Z,14.37
2018-11-07T07:28:04.389Z,13.93
2018-11-07T07:30:33.799Z,14.67
2018-11-07T07:33:02.998Z,12.97
2018-11-07T07:35:32.228Z,13.53
2018-11-07T07:38:00.825Z,13.93
2018-11-07T07:40:30.180Z,14.30
2018-11-07T07:42:58.810Z,14.40
2018-11-07T07:45:27.399Z,15.43
2018-11-07T07:47:56.658Z,14.73
2018-11-07T07:50:25.268Z,14.17
2018-11-07T07:52:53.871Z,15.53
2018-11-07T07:55:27.257Z,14.37
2018-11-07T07:57:55.838Z,15.37
2018-11-07T08:00:24.897Z,15.00
2018-11-07T08:02:53.989Z,14.30
2018-11-07T08:05:22.581Z,14.60
2018-11-07T08:07:51.967Z,13.57
2018-11-07T08:10:21.945Z,13.47
2018-11-07T08:12:52.216Z,13.60
2018-11-07T08:15:20.865Z,14.30
2018-11-07T08:17:51.561Z,13.43
2018-11-07T08:20:20.694Z,14.20
2018-11-07T08:22:49.644Z,14.47
2018-11-07T08:25:18.853Z,14.27
2018-11-07T08:27:48.014Z,14.10
2018-11-07T08:30:19.847Z,15.07
2018-11-07T08:32:49.073Z,14.83
2018-11-07T08:35:19.441Z,15.67
2018-11-07T08:37:48.732Z,15.13
2018-11-07T08:40:20.613Z,14.03
2018-11-07T08:42:50.946Z,14.47
2018-11-07T08:45:19.746Z,14.17
2018-11-07T08:47:49.307Z,15.40
2018-11-07T08:50:19.387Z,15.27
2018-11-07T08:52:48.455Z,13.53
2018-11-07T08:55:18.477Z,14.97
2018-11-07T08:57:47.834Z,14.83
2018-11-07T09:00:18.612Z,14.00
2018-11-07T09:02:48.444Z,14.90
2018-11-07T09:05:17.757Z,13.73
2018-11-07T09:07:46.903Z,14.40
2018-11-07T09:10:17.577Z,13.83
2018-11-07T09:12:46.166Z,14.47
2018-11-07T09:15:17.021Z,14.57
2018-11-07T09:17:46.053Z,14.10
2018-11-07T09:20:18.130Z,13.30
2018-11-07T09:22:46.764Z,14.90
2018-11-07T09:25:16.556Z,13.37
2018-11-07T09:27:45.878Z,15.63
2018-11-07T09:30:17.403Z,14.87
2018-11-07T09:32:46.624Z,15.27
2018-11-07T09:35:15.761Z,14.43
2018-11-07T09:37:44.309Z,14.23
2018-11-07T09:40:14.609Z,13.27
2018-11-07T09:42:44.563Z,13.37
2018-11-07T09:45:17.024Z,13.93
2018-11-07T09:47:46.034Z,13.90
2018-11-07T09:50:15.593Z,14.17
2018-11-07T09:52:44.448Z,14.30
2018-11-07T09:55:16.538Z,14.33
2018-11-07T09:57:45.864Z,13.97
2018-11-07T10:00:16.497Z,14.10
2018-11-07T10:02:45.689Z,14.70
2018-11-07T10:05:16.446Z,14.27
2018-11-07T10:07:45.128Z,14.23
2018-11-07T10:10:16.374Z,14.03
2018-11-07T10:12:45.549Z,13.60
2018-11-07T10:15:14.464Z,14.40
2018-11-07T10:17:43.715Z,13.60
2018-11-07T10:20:16.105Z,13.13
2018-11-07T10:22:45.120Z,14.07
2018-11-07T10:25:14.389Z,14.03
2018-11-07T10:27:44.712Z,13.73
2018-11-07T10:30:15.916Z,13.73
2018-11-07T10:32:45.737Z,13.33
2018-11-07T10:35:14.340Z,12.80
2018-11-07T10:37:43.937Z,12.37
2018-11-07T10:40:15.837Z,11.70
2018-11-07T10:42:45.000Z,13.20
2018-11-07T10:45:13.691Z,13.40
2018-11-07T10:47:43.964Z,13.67
2018-11-07T10:50:13.529Z,13.53
2018-11-07T10:52:42.931Z,14.23
2018-11-07T10:55:12.462Z,14.53
2018-11-07T10:57:41.588Z,13.87
2018-11-07T11:00:17.677Z,14.47
2018-11-07T11:02:47.748Z,15.40
2018-11-07T11:05:18.547Z,14.23
2018-11-07T11:07:47.481Z,14.60
2018-11-07T11:10:16.606Z,13.90
2018-11-07T11:12:45.768Z,14.47
2018-11-07T11:15:14.369Z,14.73
2018-11-07T11:17:43.023Z,14.87
2018-11-07T11:20:13.393Z,13.63
2018-11-07T11:22:41.933Z,14.90
2018-11-07T11:25:11.088Z,13.57
2018-11-07T11:27:39.720Z,12.97
2018-11-07T11:30:09.126Z,13.57
2018-11-07T11:32:37.848Z,13.53
2018-11-07T11:35:08.120Z,13.77
2018-11-07T11:37:37.337Z,13.50
2018-11-07T11:40:07.809Z,14.37
2018-11-07T11:42:36.360Z,12.77
2018-11-07T11:45:06.410Z,13.73
2018-11-07T11:47:35.201Z,13.30
2018-11-07T11:50:04.251Z,12.77
2018-11-07T11:52:33.013Z,12.13
2018-11-07T11:55:03.064Z,12.27
2018-11-07T11:57:32.762Z,11.90
2018-11-07T12:00:02.465Z,12.47
2018-11-07T12:02:34.224Z,12.47
2018-11-07T12:05:04.044Z,13.07
2018-11-07T12:07:32.626Z,13.30
2018-11-07T12:10:01.753Z,13.97
2018-11-07T12:12:31.492Z,13.73
2018-11-07T12:15:01.783Z,15.10
2018-11-07T12:17:31.696Z,12.20
2018-11-07T12:20:00.270Z,12.80
2018-11-07T12:22:29.529Z,14.33
2018-11-07T12:24:58.188Z,14.00
2018-11-07T12:27:27.481Z,15.10
2018-11-07T12:29:56.602Z,14.03
2018-11-07T12:32:25.185Z,15.00
2018-11-07T12:34:54.267Z,15.33
2018-11-07T12:37:22.836Z,13.63
2018-11-07T12:39:51.813Z,14.83
2018-11-07T12:42:20.336Z,13.93
2018-11-07T12:44:49.026Z,14.03
2018-11-07T12:47:18.097Z,14.10
2018-11-07T12:49:46.791Z,15.13
2018-11-07T12:52:15.288Z,12.80
2018-11-07T12:54:44.949Z,13.80
2018-11-07T12:57:13.694Z,14.13
2018-11-07T12:59:42.543Z,14.20
2018-11-07T13:02:11.100Z,13.47
2018-11-07T13:04:40.229Z,12.87
2018-11-07T13:07:08.757Z,12.70
2018-11-07T13:09:37.337Z,12.77
2018-11-07T13:12:06.285Z,13.03
2018-11-07T13:14:34.969Z,12.77
2018-11-07T13:17:05.007Z,13.40
2018-11-07T13:19:34.879Z,13.97
2018-11-07T13:22:03.436Z,14.87
2018-11-07T13:24:32.628Z,15.57
2018-11-07T13:27:01.323Z,15.93
2018-11-07T13:29:29.912Z,15.23
2018-11-07T13:31:58.454Z,14.87
2018-11-07T13:34:27.138Z,15.57
2018-11-07T13:36:56.415Z,14.10
2018-11-07T13:39:24.924Z,14.30
2018-11-07T13:41:54.059Z,14.20
2018-11-07T13:44:23.425Z,14.37
2018-11-07T13:46:52.009Z,14.00
2018-11-07T13:49:21.891Z,14.73
2018-11-07T13:51:51.941Z,15.13
2018-11-07T13:54:20.545Z,14.00
2018-11-07T13:56:49.758Z,14.40
2018-11-07T13:59:20.031Z,14.27
2018-11-07T14:01:50.200Z,15.63
2018-11-07T14:04:19.396Z,15.37
2018-11-07T14:06:47.969Z,15.07
2018-11-07T14:09:16.531Z,15.23
2018-11-07T14:11:45.100Z,15.50
2018-11-07T14:14:14.665Z,15.50
2018-11-07T14:16:43.217Z,14.47
2018-11-07T14:19:11.839Z,15.17
2018-11-07T14:21:40.488Z,16.67
2018-11-07T14:24:09.230Z,17.00
2018-11-07T14:26:38.427Z,15.97
2018-11-07T14:29:07.657Z,16.40
2018-11-07T14:31:36.256Z,17.17
2018-11-07T14:34:05.615Z,17.63
2018-11-07T14:36:34.198Z,17.30
2018-11-07T14:39:03.282Z,17.57
2018-11-07T14:41:31.804Z,16.27
2018-11-07T14:44:01.498Z,16.73
2018-11-07T14:46:30.087Z,15.83
2018-11-07T14:48:58.712Z,16.60
2018-11-07T14:51:27.259Z,17.33
2018-11-07T14:53:56.124Z,18.13
2018-11-07T14:56:24.815Z,17.47
2018-11-07T14:58:54.125Z,17.50
2018-11-07T15:01:23.133Z,17.93
2018-11-07T15:03:51.747Z,17.80
2018-11-07T15:06:20.286Z,18.27
2018-11-07T15:08:49.530Z,19.10
2018-11-07T15:11:18.891Z,18.53
2018-11-07T15:13:47.392Z,19.80
2018-11-07T15:16:17.124Z,20.00
2018-11-07T15:18:45.800Z,18.87
2018-11-07T15:21:15.045Z,18.93
2018-11-07T15:23:45.054Z,19.73
2018-11-07T15:26:14.306Z,19.73
2018-11-07T15:28:43.924Z,20.37
2018-11-07T15:31:13.695Z,19.90
2018-11-07T15:33:42.589Z,19.40
2018-11-07T15:36:11.298Z,20.40
2018-11-07T15:38:39.786Z,19.80
2018-11-07T15:41:08.384Z,21.03
2018-11-07T15:43:37.017Z,19.90
2018-11-07T15:46:05.869Z,20.90
2018-11-07T15:48:34.591Z,21.63
2018-11-07T15:51:09.046Z,20.40
2018-11-07T15:53:38.272Z,20.93
2018-11-07T15:56:07.317Z,21.33
2018-11-07T15:58:36.710Z,22.17
2018-11-07T16:01:05.676Z,21.47
2018-11-07T16:03:39.500Z,23.07
2018-11-07T16:06:08.087Z,21.87
2018-11-07T16:08:36.996Z,21.67
2018-11-07T16:11:06.225Z,22.17
2018-11-07T16:13:35.119Z,22.53
2018-11-07T16:16:05.576Z,23.07
2018-11-07T16:18:36.186Z,22.23
2018-11-07T16:21:07.251Z,23.97
2018-11-07T16:23:38.745Z,24.17
2018-11-07T16:26:09.809Z,24.00
2018-11-07T16:28:41.032Z,24.03
2018-11-07T16:31:11.957Z,23.30
2018-11-07T16:33:43.024Z,23.17
2018-11-07T16:36:13.967Z,23.43
2018-11-07T16:38:45.417Z,25.03
2018-11-07T16:41:16.324Z,22.10
2018-11-07T16:43:47.575Z,24.27
2018-11-07T16:46:18.729Z,24.67
2018-11-07T16:48:49.617Z,24.57
2018-11-07T16:51:20.915Z,24.10
2018-11-07T16:53:52.963Z,25.37
2018-11-07T16:56:24.786Z,25.77
2018-11-07T16:58:56.133Z,25.17
2018-11-07T17:01:27.095Z,25.77
2018-11-07T17:03:58.870Z,25.57
2018-11-07T17:06:30.008Z,25.67
2018-11-07T17:09:01.536Z,25.90
2018-11-07T17:11:33.352Z,25.73
2018-11-07T17:14:04.196Z,26.13
2018-11-07T17:16:35.408Z,24.17
2018-11-07T17:19:06.739Z,24.67
2018-11-07T17:21:39.054Z,26.10
2018-11-07T17:24:09.815Z,25.13
2018-11-07T17:26:40.876Z,26.17
2018-11-07T17:29:11.659Z,24.50
2018-11-07T17:31:42.781Z,24.50
2018-11-07T17:34:12.946Z,25.57
2018-11-07T17:36:42.045Z,24.67
2018-11-07T17:39:10.729Z,24.97
2018-11-07T17:41:41.151Z,24.80
2018-11-07T17:44:09.879Z,24.60
2018-11-07T17:46:41.332Z,24.80
2018-11-07T17:49:12.358Z,24.87
2018-11-07T17:51:43.528Z,24.10
2018-11-07T17:54:14.697Z,25.50
2018-11-07T17:56:45.799Z,24.63
2018-11-07T17:59:15.878Z,25.40
2018-11-07T18:01:47.199Z,25.30
2018-11-07T18:04:16.158Z,25.57
2018-11-07T18:06:45.360Z,24.53
2018-11-07T18:09:14.119Z,24.77
2018-11-07T18:11:43.400Z,28.27
2018-11-07T18:14:12.616Z,25.33
2018-11-07T18:16:41.915Z,24.17
2018-11-07T18:19:10.573Z,26.50
2018-11-07T18:21:39.806Z,26.87
2018-11-07T18:24:08.378Z,27.47
2018-11-07T18:26:37.720Z,30.50
2018-11-07T18:29:07.557Z,30.70
2018-11-07T18:31:36.099Z,29.87
2018-11-07T18:34:04.657Z,34.73
2018-11-07T18:36:33.477Z,28.47
2018-11-07T18:39:02.044Z,28.17
2018-11-07T18:41:30.673Z,66.83
2018-11-07T18:43:59.223Z,30.27
2018-11-07T18:46:28.392Z,29.87
2018-11-07T18:48:57.084Z,40.53
2018-11-07T18:51:26.232Z,30.20
2018-11-07T18:53:54.869Z,30.60
2018-11-07T18:56:23.415Z,28.83
2018-11-07T18:58:52.556Z,46.77
2018-11-07T19:01:21.120Z,65.23
2018-11-07T19:03:51.505Z,75.90
2018-11-07T19:06:20.431Z,37.20
2018-11-07T19:08:49.104Z,34.67
2018-11-07T19:11:18.468Z,43.60
2018-11-07T19:13:47.041Z,40.70
2018-11-07T19:16:15.802Z,44.87
2018-11-07T19:18:45.648Z,40.23
2018-11-07T19:21:14.263Z,59.77
2018-11-07T19:23:42.822Z,35.60
2018-11-07T19:26:11.389Z,36.30
2018-11-07T19:28:39.967Z,30.77
2018-11-07T19:31:08.554Z,37.70
2018-11-07T19:33:37.749Z,29.53
2018-11-07T19:36:06.513Z,29.33
2018-11-07T19:38:35.932Z,30.27
2018-11-07T19:41:04.525Z,28.90
2018-11-07T19:43:35.100Z,29.50
2018-11-07T19:46:03.860Z,29.10
2018-11-07T19:48:33.954Z,28.57
2018-11-07T19:51:02.647Z,27.33
2018-11-07T19:53:31.333Z,29.63
2018-11-07T19:56:00.983Z,25.97
2018-11-07T19:58:29.913Z,28.37
2018-11-07T20:00:59.663Z,26.07
2018-11-07T20:03:28.868Z,27.93
2018-11-07T20:05:58.152Z,27.83
2018-11-07T20:08:31.052Z,29.13
2018-11-07T20:11:00.877Z,27.97
2018-11-07T20:13:30.085Z,28.53
2018-11-07T20:15:58.705Z,27.73
2018-11-07T20:18:28.586Z,29.03
2018-11-07T20:20:57.345Z,32.30
2018-11-07T20:23:26.457Z,31.60
2018-11-07T20:25:55.042Z,27.90
2018-11-07T20:28:25.332Z,30.23
2018-11-07T20:30:54.525Z,26.40
2018-11-07T20:33:25.708Z,25.80
2018-11-07T20:35:54.894Z,27.57
2018-11-07T20:38:28.993Z,25.63
2018-11-07T20:40:58.085Z,26.40
2018-11-07T20:43:27.533Z,27.33
2018-11-07T20:45:57.506Z,27.00
2018-11-07T20:48:28.240Z,25.43
2018-11-07T20:50:57.726Z,25.93
2018-11-07T20:53:28.891Z,26.10
2018-11-07T20:55:59.181Z,26.37
2018-11-07T20:58:30.110Z,27.50
2018-11-07T21:00:59.450Z,25.30
2018-11-07T21:03:29.070Z,26.63
2018-11-07T21:05:58.235Z,27.50
2018-11-07T21:08:29.372Z,31.00
2018-11-07T21:11:02.347Z,30.83
2018-11-07T21:13:30.996Z,29.00
2018-11-07T21:16:00.060Z,27.97
2018-11-07T21:18:28.792Z,28.33
2018-11-07T21:20:57.569Z,28.10
2018-11-07T21:23:26.176Z,27.60
2018-11-07T21:25:54.761Z,26.27
2018-11-07T21:28:23.420Z,27.20
2018-11-07T21:30:53.722Z,26.87
2018-11-07T21:33:23.080Z,26.17
2018-11-07T21:35:51.977Z,26.70
2018-11-07T21:38:21.794Z,27.77
2018-11-07T21:40:50.493Z,26.43
2018-11-07T21:43:20.421Z,26.23
2018-11-07T21:45:49.640Z,25.97
2018-11-07T21:48:19.031Z,26.23
2018-11-07T21:50:47.961Z,24.67
2018-11-07T21:53:16.671Z,24.80
2018-11-07T21:55:45.449Z,23.40
2018-11-07T21:58:16.313Z,22.57
2018-11-07T22:00:48.140Z,23.97
2018-11-07T22:03:18.714Z,23.30
2018-11-07T22:05:49.363Z,22.73
2018-11-07T22:08:20.364Z,21.67
2018-11-07T22:10:51.791Z,20.30
2018-11-07T22:13:21.622Z,21.23
2018-11-07T22:15:50.208Z,20.00
2018-11-07T22:18:18.764Z,19.13
2018-11-07T22:20:47.496Z,19.50
2018-11-07T22:23:16.080Z,18.50
2018-11-07T22:25:47.223Z,19.47
2018-11-07T22:28:17.300Z,19.13
2018-11-07T22:30:48.242Z,19.17
2018-11-07T22:33:18.913Z,19.90
2018-11-07T22:35:48.094Z,18.43
2018-11-07T22:38:16.874Z,18.33
2018-11-07T22:40:45.946Z,18.73
2018-11-07T22:43:15.404Z,20.10
2018-11-07T22:45:44.121Z,19.53
2018-11-07T22:48:15.253Z,19.67
2018-11-07T22:50:43.893Z,20.20
2018-11-07T22:53:12.580Z,19.67
2018-11-07T22:55:42.225Z,21.60
2018-11-07T22:58:12.593Z,21.57
2018-11-07T23:00:46.446Z,20.23
2018-11-07T23:03:15.663Z,20.50
2018-11-07T23:05:44.863Z,20.83
2018-11-07T23:08:13.422Z,21.90
2018-11-07T23:10:43.414Z,22.07
2018-11-07T23:13:12.481Z,22.10
2018-11-07T23:15:48.770Z,22.70
2018-11-07T23:18:19.540Z,22.20
2018-11-07T23:20:48.745Z,20.43
2018-11-07T23:23:18.000Z,22.67
2018-11-07T23:25:47.298Z,21.73
2018-11-07T23:28:17.757Z,22.80
2018-11-07T23:30:47.528Z,21.53
2018-11-07T23:33:16.594Z,22.63
2018-11-07T23:35:46.776Z,20.80
2018-11-07T23:38:15.832Z,21.63
2018-11-07T23:40:46.329Z,21.13
2018-11-07T23:43:16.140Z,19.60
2018-11-07T23:45:45.232Z,22.20
2018-11-07T23:48:14.664Z,21.33
2018-11-07T23:50:43.250Z,21.53
2018-11-07T23:53:14.136Z,20.83
2018-11-07T23:55:43.851Z,20.43
2018-11-07T23:58:12.850Z,20.83
